Time;durP1;ratioP1;P1;durP2;ratioP2;P2;SDS_P1;SDS_P2;PMS_P1;PMS_P2;Temp;Humidity;BMP_temperature;BMP_pressure;BME280_temperature;BME280_humidity;BME280_pressure;Samples;Min_cycle;Max_cycle;Signal;HPM_P1;HPM_P2
2022/02/07 00:02:24;;;;;;;4.10;2.87;;;9.90;99.90;;;;;;6207669;23;20184;-93
2022/02/07 00:04:55;;;;;;;4.37;3.13;;;9.90;99.90;;;;;;6212407;23;20153;-93
2022/02/07 00:07:27;;;;;;;3.40;3.03;;;9.90;99.90;;;;;;6211995;23;20213;-94
2022/02/07 00:09:58;;;;;;;4.37;2.47;;;9.80;99.90;;;;;;6210411;23;20184;-93
2022/02/07 00:12:31;;;;;;;3.07;2.60;;;9.70;99.90;;;;;;6200329;23;20189;-93
2022/02/07 00:15:02;;;;;;;3.57;2.50;;;9.60;99.90;;;;;;6180009;23;20169;-93
2022/02/07 00:17:33;;;;;;;3.37;2.50;;;9.50;99.90;;;;;;6199701;23;20589;-93
2022/02/07 00:20:11;;;;;;;6.10;2.67;;;9.40;99.90;;;;;;6202505;23;20188;-90
2022/02/07 00:22:42;;;;;;;4.97;2.43;;;9.40;99.90;;;;;;6204084;23;20208;-95
2022/02/07 00:25:14;;;;;;;3.00;2.27;;;9.30;99.90;;;;;;6205280;23;20165;-93
2022/02/07 00:27:46;;;;;;;4.50;2.43;;;9.30;99.90;;;;;;6203003;23;20187;-93
2022/02/07 00:30:23;;;;;;;4.13;2.67;;;9.20;99.90;;;;;;6192934;23;20204;-92
2022/02/07 00:32:54;;;;;;;2.90;2.60;;;9.10;99.90;;;;;;6204879;23;20200;-93
2022/02/07 00:35:26;;;;;;;4.73;2.40;;;9.10;99.90;;;;;;6206411;23;20237;-93
2022/02/07 00:38:05;;;;;;;4.93;3.20;;;9.00;99.90;;;;;;6205064;23;20170;-93
2022/02/07 00:40:59;;;;;;;3.67;2.60;;;8.90;99.90;;;;;;6201891;23;20176;-93
2022/02/07 00:43:39;;;;;;;4.63;2.77;;;8.90;99.90;;;;;;6205850;23;20177;-93
2022/02/07 00:46:12;;;;;;;4.03;2.53;;;8.80;99.90;;;;;;6203458;23;20196;-92
2022/02/07 00:48:44;;;;;;;3.30;2.70;;;8.80;99.90;;;;;;6204911;23;20173;-93
2022/02/07 00:51:15;;;;;;;3.60;2.77;;;8.80;99.90;;;;;;6203363;23;20173;-94
2022/02/07 00:53:45;;;;;;;3.43;2.97;;;8.70;99.90;;;;;;6207107;23;20202;-94
2022/02/07 00:56:17;;;;;;;4.23;2.57;;;8.60;99.90;;;;;;6207810;23;20185;-93
2022/02/07 00:58:50;;;;;;;4.33;2.63;;;8.60;99.90;;;;;;6196343;23;20215;-93
2022/02/07 01:01:23;;;;;;;3.67;2.77;;;8.50;99.90;;;;;;6197707;23;20180;-92
2022/02/07 01:03:53;;;;;;;3.60;2.80;;;8.40;99.90;;;;;;6205355;23;20185;-92
2022/02/07 01:06:24;;;;;;;3.53;2.77;;;8.30;99.90;;;;;;6205261;23;20173;-94
2022/02/07 01:09:09;;;;;;;4.97;3.10;;;8.20;99.90;;;;;;6201419;23;20432;-92
2022/02/07 01:11:55;;;;;;;5.40;3.37;;;8.10;99.90;;;;;;6200747;23;20165;-93
2022/02/07 01:14:40;;;;;;;5.53;3.33;;;8.10;99.90;;;;;;6205559;23;20173;-93
2022/02/07 01:18:10;;;;;;;4.33;3.13;;;8.00;99.90;;;;;;6205049;23;20177;-92
2022/02/07 01:20:55;;;;;;;3.63;2.73;;;7.90;99.90;;;;;;6203280;23;20501;-91
2022/02/07 01:23:41;;;;;;;7.13;3.10;;;7.80;99.90;;;;;;6206511;23;20225;-93
2022/02/07 01:49:07;;;;;;;5.90;3.27;;;7.40;99.90;;;;;;6188729;23;20169;-93
2022/02/07 01:51:58;;;;;;;4.10;3.33;;;7.30;99.90;;;;;;6210804;23;20180;-93
2022/02/07 01:54:37;;;;;;;3.57;2.80;;;7.30;99.90;;;;;;6206836;23;20201;-92
2022/02/07 01:57:17;;;;;;;4.70;3.70;;;7.20;99.90;;;;;;6194923;23;20192;-92
2022/02/07 01:59:48;;;;;;;4.83;3.50;;;7.20;99.90;;;;;;6204239;23;20165;-92
2022/02/07 02:02:19;;;;;;;5.93;3.60;;;7.10;99.90;;;;;;6204381;23;20184;-93
2022/02/07 02:04:53;;;;;;;7.67;3.80;;;7.10;99.90;;;;;;6206059;23;20193;-92
2022/02/07 02:07:24;;;;;;;5.77;3.93;;;7.00;99.90;;;;;;6204755;23;20177;-92
2022/02/07 02:09:56;;;;;;;5.00;3.60;;;6.90;99.90;;;;;;6208135;23;20174;-91
2022/02/07 02:12:30;;;;;;;5.47;3.97;;;6.90;99.90;;;;;;6208555;23;20272;-93
2022/02/07 02:15:15;;;;;;;6.90;3.90;;;6.80;99.90;;;;;;6206076;23;20173;-93
2022/02/07 02:37:32;;;;;;;7.23;4.87;;;6.50;99.90;;;;;;6202566;23;20181;-94
2022/02/07 02:46:15;;;;;;;10.03;4.70;;;6.40;99.90;;;;;;6093367;23;20173;-93
2022/02/07 02:48:47;;;;;;;8.50;4.83;;;6.30;99.90;;;;;;6159683;23;20188;-92
2022/02/07 02:51:19;;;;;;;5.57;4.03;;;6.30;99.90;;;;;;6207312;23;20228;-93
2022/02/07 02:53:50;;;;;;;11.87;6.40;;;6.20;99.90;;;;;;6204958;23;20223;-93
2022/02/07 02:56:23;;;;;;;8.63;5.47;;;6.30;99.90;;;;;;6204976;23;20185;-91
2022/02/07 02:58:54;;;;;;;7.40;5.43;;;6.30;99.90;;;;;;6205157;23;20177;-91
2022/02/07 03:01:26;;;;;;;12.07;6.50;;;6.20;99.90;;;;;;6205852;23;20240;-92
2022/02/07 03:03:56;;;;;;;8.57;4.87;;;6.20;99.90;;;;;;6203545;23;20177;-92
2022/02/07 03:06:27;;;;;;;8.90;4.07;;;6.20;99.90;;;;;;6203255;23;20638;-92
2022/02/07 03:09:00;;;;;;;10.30;4.37;;;6.20;99.90;;;;;;6204510;23;20445;-91
2022/02/07 03:11:36;;;;;;;5.70;3.87;;;6.30;99.90;;;;;;6201947;23;20630;-92
2022/02/07 03:14:18;;;;;;;8.67;3.77;;;6.30;99.90;;;;;;6207640;23;20204;-93
2022/02/07 03:16:50;;;;;;;5.60;4.03;;;6.30;99.90;;;;;;6207223;23;20224;-93
2022/02/07 03:19:21;;;;;;;5.43;3.57;;;6.30;99.90;;;;;;6210860;23;20196;-93
2022/02/07 03:21:53;;;;;;;5.60;3.77;;;6.30;99.90;;;;;;6206484;23;20599;-94
2022/02/07 03:27:01;;;;;;;6.50;4.90;;;6.40;99.90;;;;;;6255441;22;20207;-92
2022/02/07 03:29:34;;;;;;;8.10;4.87;;;6.50;99.90;;;;;;6266892;23;20151;-93
2022/02/07 03:32:08;;;;;;;6.57;4.70;;;6.60;99.90;;;;;;6269135;23;20156;-92
2022/02/07 03:34:40;;;;;;;8.90;5.33;;;6.60;99.90;;;;;;6267335;23;20195;-93
2022/02/07 03:37:12;;;;;;;7.47;4.83;;;6.60;99.90;;;;;;6251364;23;20188;-92
2022/02/07 03:39:45;;;;;;;8.20;5.30;;;6.50;99.90;;;;;;6263782;23;20178;-94
2022/02/07 03:42:18;;;;;;;6.90;4.90;;;6.40;99.90;;;;;;6269673;23;20172;-92
2022/02/07 03:44:49;;;;;;;9.30;6.10;;;6.40;99.90;;;;;;6266362;23;20591;-94
2022/02/07 03:47:23;;;;;;;8.13;5.77;;;6.40;99.90;;;;;;6265333;23;20195;-91
2022/02/07 03:49:54;;;;;;;8.70;5.33;;;6.30;99.90;;;;;;6265296;23;20175;-91
2022/02/07 03:52:26;;;;;;;7.60;5.10;;;6.20;99.90;;;;;;6267990;22;20168;-93
2022/02/07 03:54:58;;;;;;;8.13;5.43;;;6.10;99.90;;;;;;6271898;23;20191;-93
2022/02/07 03:57:31;;;;;;;7.40;5.50;;;6.00;99.90;;;;;;6272324;22;20177;-92
2022/02/07 04:00:05;;;;;;;8.60;5.83;;;5.90;99.90;;;;;;6273052;22;20157;-93
2022/02/07 04:02:40;;;;;;;10.37;6.40;;;5.80;99.90;;;;;;6272384;22;20160;-93
2022/02/07 04:05:36;;;;;;;11.93;5.70;;;5.80;99.90;;;;;;6272104;22;20167;-93
2022/02/07 04:08:09;;;;;;;8.63;6.10;;;5.80;99.90;;;;;;6239354;23;20602;-92
2022/02/07 04:10:52;;;;;;;10.00;6.03;;;5.70;99.90;;;;;;6265727;23;20175;-92
2022/02/07 04:13:29;;;;;;;9.10;6.17;;;5.70;99.90;;;;;;6256378;23;20164;-93
2022/02/07 04:16:02;;;;;;;10.50;6.10;;;5.60;99.90;;;;;;6260799;23;20164;-92
2022/02/07 04:18:47;;;;;;;8.37;5.80;;;5.50;99.90;;;;;;6266395;23;20186;-92
2022/02/07 04:21:20;;;;;;;8.27;6.03;;;5.50;99.90;;;;;;6263450;23;20181;-92
2022/02/07 04:23:52;;;;;;;11.27;7.30;;;5.50;99.90;;;;;;6237695;23;20196;-90
2022/02/07 04:26:23;;;;;;;10.50;7.73;;;5.50;99.90;;;;;;6265468;23;20184;-92
2022/02/07 04:28:56;;;;;;;11.87;8.50;;;5.50;99.90;;;;;;6266686;23;20164;-92
2022/02/07 04:31:27;;;;;;;11.10;7.40;;;5.50;99.90;;;;;;6267227;23;20206;-93
2022/02/07 04:33:59;;;;;;;10.20;7.57;;;5.50;99.90;;;;;;6264475;23;20309;-93
2022/02/07 04:36:30;;;;;;;11.03;6.57;;;5.50;99.90;;;;;;6264742;23;20190;-94
2022/02/07 04:39:02;;;;;;;11.87;7.13;;;5.50;99.90;;;;;;6267246;23;20164;-92
2022/02/07 04:41:33;;;;;;;12.40;7.83;;;5.60;99.90;;;;;;6237548;23;20179;-94
2022/02/07 04:44:09;;;;;;;11.33;8.30;;;5.60;99.90;;;;;;6258769;23;20164;-92
2022/02/07 04:46:55;;;;;;;11.37;7.93;;;5.60;99.90;;;;;;6234819;23;20170;-92
2022/02/07 04:49:44;;;;;;;9.70;7.03;;;5.60;99.90;;;;;;6261937;23;20191;-92
2022/02/07 04:52:36;;;;;;;8.80;6.77;;;5.70;99.90;;;;;;6263625;23;20172;-92
2022/02/07 04:55:14;;;;;;;12.13;7.63;;;5.60;99.90;;;;;;6257941;23;20179;-93
2022/02/07 05:00:41;;;;;;;12.10;8.47;;;5.60;99.90;;;;;;6260591;23;20197;-92
2022/02/07 05:03:16;;;;;;;17.60;10.00;;;5.60;99.90;;;;;;6270494;23;20250;-93
2022/02/07 05:14:12;;;;;;;13.37;8.97;;;5.30;99.90;;;;;;6187757;23;20266;-92
2022/02/07 05:16:47;;;;;;;14.63;9.50;;;5.20;99.90;;;;;;6221678;23;20176;-92
2022/02/07 05:19:18;;;;;;;13.40;9.20;;;5.10;99.90;;;;;;6222590;23;20168;-92
2022/02/07 05:21:50;;;;;;;13.47;8.80;;;5.10;99.90;;;;;;6222193;23;20180;-91
2022/02/07 05:24:21;;;;;;;13.80;9.87;;;5.10;99.90;;;;;;6223131;23;20172;-92
2022/02/07 05:26:53;;;;;;;13.53;9.83;;;5.00;99.90;;;;;;6221571;23;20173;-92
2022/02/07 05:29:24;;;;;;;15.97;10.10;;;5.00;99.90;;;;;;6224197;22;20212;-91
2022/02/07 05:31:57;;;;;;;16.77;11.60;;;5.00;99.90;;;;;;6222633;23;20235;-91
2022/02/07 05:34:28;;;;;;;13.50;9.60;;;5.00;99.90;;;;;;6226751;23;20209;-92
2022/02/07 05:36:59;;;;;;;13.43;9.47;;;5.00;99.90;;;;;;6230198;23;20603;-91
2022/02/07 05:39:34;;;;;;;13.30;10.30;;;5.00;99.90;;;;;;6232003;23;20230;-92
2022/02/07 05:42:07;;;;;;;13.63;10.07;;;4.90;99.90;;;;;;6234068;22;20180;-92
2022/02/07 05:44:39;;;;;;;13.70;10.77;;;4.90;99.90;;;;;;6235876;23;20173;-92
2022/02/07 05:47:13;;;;;;;14.37;9.97;;;4.90;99.90;;;;;;6233471;23;20176;-91
2022/02/07 05:49:46;;;;;;;12.90;10.03;;;4.90;99.90;;;;;;6232777;23;20188;-92
2022/02/07 05:52:16;;;;;;;16.80;10.10;;;4.90;99.90;;;;;;6223269;23;20215;-92
2022/02/07 05:54:48;;;;;;;14.23;10.23;;;4.90;99.90;;;;;;6224156;22;20227;-92
2022/02/07 05:57:19;;;;;;;14.17;9.57;;;4.80;99.90;;;;;;6221771;23;20169;-92
2022/02/07 05:59:50;;;;;;;13.87;9.33;;;4.80;99.90;;;;;;6225726;23;20511;-92
2022/02/07 06:02:23;;;;;;;12.87;9.67;;;4.80;99.90;;;;;;6221738;23;20552;-92
2022/02/07 06:04:55;;;;;;;13.97;9.93;;;4.70;99.90;;;;;;6220957;23;20176;-92
2022/02/07 06:07:26;;;;;;;14.40;9.97;;;4.70;99.90;;;;;;6220309;23;20172;-93
2022/02/07 06:09:58;;;;;;;15.93;11.27;;;4.70;99.90;;;;;;6221371;23;20258;-92
2022/02/07 06:12:29;;;;;;;15.60;11.97;;;4.70;99.90;;;;;;6221403;23;20560;-92
2022/02/07 06:15:00;;;;;;;12.90;9.43;;;4.70;99.90;;;;;;6222035;23;20196;-92
2022/02/07 06:17:32;;;;;;;14.47;9.33;;;4.70;99.90;;;;;;6221714;23;20586;-92
2022/02/07 06:20:04;;;;;;;11.60;9.00;;;4.70;99.90;;;;;;6233034;22;20180;-92
2022/02/07 06:22:36;;;;;;;13.70;9.37;;;4.80;99.90;;;;;;6243623;22;20185;-90
2022/02/07 06:25:07;;;;;;;12.33;8.93;;;4.80;99.90;;;;;;6243219;22;20172;-93
2022/02/07 06:27:39;;;;;;;12.47;9.23;;;4.80;99.90;;;;;;6241129;22;20165;-93
2022/02/07 06:30:12;;;;;;;14.03;8.47;;;4.80;99.90;;;;;;6233520;22;20219;-93
2022/02/07 06:32:45;;;;;;;10.60;8.13;;;4.80;99.90;;;;;;6233121;22;20213;-92
2022/02/07 06:35:17;;;;;;;12.93;8.70;;;4.70;99.90;;;;;;6226528;23;20224;-91
2022/02/07 06:37:48;;;;;;;11.23;8.40;;;4.70;99.90;;;;;;6226323;23;20210;-91
2022/02/07 06:40:19;;;;;;;13.00;8.93;;;4.60;99.90;;;;;;6224296;23;20187;-91
2022/02/07 06:42:49;;;;;;;11.27;8.60;;;4.60;99.90;;;;;;6221507;23;20192;-93
2022/02/07 06:45:20;;;;;;;12.90;8.20;;;4.50;99.90;;;;;;6225424;23;20183;-92
2022/02/07 06:47:53;;;;;;;12.30;8.57;;;4.50;99.90;;;;;;6228964;23;20192;-92
2022/02/07 06:50:25;;;;;;;13.50;8.33;;;4.50;99.90;;;;;;6228698;23;20211;-94
2022/02/07 06:52:56;;;;;;;10.87;7.87;;;4.50;99.90;;;;;;6198219;23;20165;-93
2022/02/07 06:55:28;;;;;;;11.37;7.47;;;4.40;99.90;;;;;;6220748;23;20234;-93
2022/02/07 06:57:59;;;;;;;11.60;8.27;;;4.40;99.90;;;;;;6221259;23;20179;-93
2022/02/07 07:00:30;;;;;;;9.37;6.90;;;4.40;99.90;;;;;;6220765;23;20180;-92
2022/02/07 07:03:03;;;;;;;12.27;8.00;;;4.40;99.90;;;;;;6221358;23;20194;-92
2022/02/07 07:05:36;;;;;;;13.43;8.10;;;4.40;99.90;;;;;;6220917;23;20169;-93
2022/02/07 07:08:07;;;;;;;10.07;7.47;;;4.40;99.90;;;;;;6224217;23;20212;-92
2022/02/07 07:10:37;;;;;;;12.10;8.23;;;4.30;99.90;;;;;;6221178;23;20634;-92
2022/02/07 07:13:12;;;;;;;10.33;7.33;;;4.30;99.90;;;;;;6222856;23;20168;-92
2022/02/07 07:15:50;;;;;;;11.30;7.83;;;4.30;99.90;;;;;;6220370;23;20259;-93
2022/02/07 07:18:23;;;;;;;10.40;7.50;;;4.20;99.90;;;;;;6222513;23;20195;-93
2022/02/07 07:20:54;;;;;;;10.40;7.43;;;4.20;99.90;;;;;;6224022;23;20184;-93
2022/02/07 07:23:26;;;;;;;11.27;8.00;;;4.20;99.90;;;;;;6234887;23;20176;-91
2022/02/07 07:25:57;;;;;;;10.80;7.43;;;4.20;99.90;;;;;;6223957;23;20200;-91
2022/02/07 07:28:28;;;;;;;12.70;7.47;;;4.20;99.90;;;;;;6225329;23;20180;-90
2022/02/07 07:31:00;;;;;;;10.93;7.87;;;4.20;99.90;;;;;;6231042;22;20184;-91
2022/02/07 07:33:34;;;;;;;11.83;8.57;;;4.20;99.90;;;;;;6234197;23;20183;-92
2022/02/07 07:36:06;;;;;;;10.90;8.20;;;4.10;99.90;;;;;;6232234;22;20223;-91
2022/02/07 07:38:37;;;;;;;9.80;7.07;;;4.20;99.90;;;;;;6226910;23;20213;-91
2022/02/07 07:41:08;;;;;;;8.37;6.47;;;4.20;99.90;;;;;;6222848;23;20588;-92
2022/02/07 07:43:46;;;;;;;9.73;7.07;;;4.40;99.90;;;;;;6222637;23;20980;-91
2022/02/07 07:46:23;;;;;;;7.83;5.83;;;4.50;99.90;;;;;;6225402;23;20216;-93
2022/02/07 07:49:01;;;;;;;7.13;5.60;;;4.90;99.90;;;;;;6226850;23;20164;-92
2022/02/07 07:51:41;;;;;;;7.00;4.40;;;5.10;99.90;;;;;;6235124;23;20195;-93
2022/02/07 07:54:25;;;;;;;9.23;5.07;;;5.30;99.90;;;;;;6229232;23;20164;-93
2022/02/07 08:02:34;;;;;;;6.83;4.80;;;6.20;99.90;;;;;;6209666;23;20187;-92
2022/02/07 08:05:18;;;;;;;6.03;4.53;;;6.20;99.90;;;;;;6229680;23;20173;-92
2022/02/07 08:07:53;;;;;;;4.57;3.77;;;6.50;99.90;;;;;;6233962;23;20172;-93
2022/02/07 08:13:15;;;;;;;5.63;3.43;;;7.20;99.90;;;;;;6223865;22;20180;-94
2022/02/07 08:15:47;;;;;;;6.70;3.83;;;7.50;99.90;;;;;;6229991;23;20192;-93
2022/02/07 08:18:19;;;;;;;4.47;3.87;;;7.90;99.90;;;;;;6230267;23;20187;-94
2022/02/07 08:20:55;;;;;;;5.60;3.83;;;8.10;99.90;;;;;;6227705;23;20236;-93
2022/02/07 08:23:26;;;;;;;5.47;3.97;;;8.20;99.90;;;;;;6228136;23;20199;-91
2022/02/07 08:26:00;;;;;;;5.10;3.50;;;8.10;99.90;;;;;;6224652;23;20172;-93
2022/02/07 08:28:47;;;;;;;4.10;3.70;;;8.10;99.90;;;;;;6224582;23;20169;-92
2022/02/07 08:31:17;;;;;;;5.13;3.60;;;8.20;99.90;;;;;;6224110;23;20195;-93
2022/02/07 08:33:49;;;;;;;5.00;3.43;;;8.30;99.90;;;;;;6227559;23;20509;-93
2022/02/07 08:36:23;;;;;;;6.20;3.87;;;8.40;99.90;;;;;;6223417;23;20207;-93
2022/02/07 08:38:54;;;;;;;4.57;3.20;;;8.30;99.90;;;;;;6229280;22;20200;-93
2022/02/07 08:41:25;;;;;;;4.50;3.60;;;8.40;99.90;;;;;;6241117;22;20195;-93
2022/02/07 08:43:56;;;;;;;4.03;3.20;;;8.40;99.90;;;;;;6237914;22;20231;-91
2022/02/07 08:46:27;;;;;;;4.23;3.20;;;8.40;99.90;;;;;;6229375;23;20196;-93
2022/02/07 08:48:59;;;;;;;4.67;3.40;;;8.50;99.90;;;;;;6195477;23;20183;-94
2022/02/07 08:51:33;;;;;;;4.23;3.23;;;8.50;99.90;;;;;;6220876;23;20173;-93
2022/02/07 08:54:06;;;;;;;4.93;3.23;;;8.40;99.90;;;;;;6220099;23;20168;-93
2022/02/07 08:56:48;;;;;;;5.50;3.30;;;8.40;99.90;;;;;;6220470;23;20228;-92
2022/02/07 08:59:21;;;;;;;4.27;3.10;;;8.50;99.90;;;;;;6228831;23;20179;-94
2022/02/07 09:02:05;;;;;;;4.43;3.17;;;8.60;99.90;;;;;;6230193;23;20173;-92
2022/02/07 09:05:07;;;;;;;5.27;3.33;;;8.50;99.90;;;;;;6232066;23;20165;-93
2022/02/07 09:07:47;;;;;;;6.40;3.33;;;8.60;99.90;;;;;;6231328;23;20172;-92
2022/02/07 09:10:18;;;;;;;4.03;3.30;;;8.60;99.90;;;;;;6233226;23;20179;-94
2022/02/07 09:12:54;;;;;;;4.13;3.33;;;8.60;99.90;;;;;;6220840;23;20208;-93
2022/02/07 09:15:43;;;;;;;5.57;3.90;;;8.50;99.90;;;;;;6219988;23;20172;-93
2022/02/07 09:18:13;;;;;;;4.93;4.43;;;8.40;99.90;;;;;;6223652;23;20186;-92
2022/02/07 09:20:45;;;;;;;5.37;3.50;;;8.40;99.90;;;;;;6222013;23;20195;-93
2022/02/07 09:23:18;;;;;;;5.70;4.00;;;8.30;99.90;;;;;;6193894;23;20483;-94
2022/02/07 09:25:49;;;;;;;4.50;3.50;;;8.40;99.90;;;;;;6220393;23;20171;-93
2022/02/07 09:28:19;;;;;;;5.20;3.70;;;8.30;99.90;;;;;;6220492;23;20496;-93
2022/02/07 09:30:55;;;;;;;5.10;3.10;;;8.30;99.90;;;;;;6220215;23;20198;-93
2022/02/07 09:33:30;;;;;;;4.67;3.30;;;8.30;99.90;;;;;;6202064;23;20232;-92
2022/02/07 09:36:02;;;;;;;4.47;3.20;;;8.30;99.90;;;;;;6223775;23;20180;-93
2022/02/07 09:38:36;;;;;;;3.43;3.00;;;8.30;99.90;;;;;;6220478;23;20207;-92
2022/02/07 09:41:10;;;;;;;4.27;3.20;;;8.30;99.90;;;;;;6221152;23;20199;-94
2022/02/07 09:43:46;;;;;;;4.03;2.93;;;8.30;99.90;;;;;;6221932;23;20171;-93
2022/02/07 09:46:33;;;;;;;4.07;3.20;;;8.30;99.90;;;;;;6224096;23;20169;-93
2022/02/07 09:49:05;;;;;;;4.17;3.00;;;8.30;99.90;;;;;;6221887;23;20194;-94
2022/02/07 09:51:36;;;;;;;5.37;2.97;;;8.30;99.90;;;;;;6224037;23;20169;-94
2022/02/07 09:54:11;;;;;;;4.13;2.87;;;8.40;99.90;;;;;;6222195;23;20168;-93
2022/02/07 09:56:42;;;;;;;5.33;3.03;;;8.40;99.90;;;;;;6227552;23;20207;-91
2022/02/07 09:59:14;;;;;;;3.77;2.87;;;8.40;99.90;;;;;;6228143;23;20178;-93
2022/02/07 10:01:50;;;;;;;3.83;2.70;;;8.50;99.90;;;;;;6239028;23;20638;-94
2022/02/07 10:04:27;;;;;;;4.27;2.47;;;8.50;99.90;;;;;;6241698;23;20236;-93
2022/02/07 10:07:07;;;;;;;3.70;2.70;;;8.50;99.90;;;;;;6229851;23;20165;-91
2022/02/07 10:09:52;;;;;;;4.03;2.50;;;8.40;99.90;;;;;;6227780;23;20168;-93
2022/02/07 10:21:22;;;;;;;4.17;2.97;;;8.50;99.90;;;;;;6220794;23;20200;-94
2022/02/07 10:44:04;;;;;;;3.80;3.23;;;8.40;99.90;;;;;;6218934;23;20551;-94
2022/02/07 10:46:36;;;;;;;5.17;3.37;;;8.30;99.90;;;;;;6220292;23;20622;-92
2022/02/07 10:49:10;;;;;;;4.23;3.50;;;8.20;99.90;;;;;;6222016;23;20458;-92
2022/02/07 10:51:41;;;;;;;6.07;3.67;;;8.10;99.90;;;;;;6221506;23;20184;-92
2022/02/07 10:54:14;;;;;;;8.13;3.83;;;8.00;99.90;;;;;;6231413;23;20177;-94
2022/02/07 10:56:48;;;;;;;5.67;4.17;;;7.90;99.90;;;;;;6241368;23;20160;-96
2022/02/07 10:59:22;;;;;;;18.00;6.20;;;7.90;99.90;;;;;;6217440;23;20172;-94
2022/02/07 11:02:39;;;;;;;5.63;3.43;;;7.90;99.90;;;;;;6236748;23;20168;-93
2022/02/07 11:05:09;;;;;;;5.10;3.33;;;7.90;99.90;;;;;;6221806;23;20216;-94
2022/02/07 11:07:41;;;;;;;5.20;2.90;;;8.00;99.90;;;;;;6220780;23;20203;-93
2022/02/07 11:16:06;;;;;;;4.77;3.00;;;8.20;99.90;;;;;;6198197;23;20219;-94
2022/02/07 11:19:02;;;;;;;3.27;2.70;;;8.10;99.90;;;;;;6220666;23;20240;-93
2022/02/07 11:21:39;;;;;;;3.87;3.17;;;8.10;99.90;;;;;;6225568;23;20176;-93
2022/02/07 11:24:31;;;;;;;4.80;3.70;;;8.00;99.90;;;;;;6197674;23;20180;-95
2022/02/07 11:27:40;;;;;;;6.87;3.17;;;8.00;99.90;;;;;;6220692;23;20186;-93
2022/02/07 11:30:12;;;;;;;4.83;3.43;;;7.90;99.90;;;;;;6222113;23;20176;-94
2022/02/07 11:33:00;;;;;;;5.53;3.63;;;7.80;99.90;;;;;;6221237;23;20171;-94
2022/02/07 11:35:50;;;;;;;4.80;3.73;;;7.80;99.90;;;;;;6217523;23;20189;-94
2022/02/07 11:38:22;;;;;;;6.27;3.80;;;7.70;99.90;;;;;;6220649;23;20200;-93
2022/02/07 11:41:01;;;;;;;5.40;3.50;;;7.60;99.90;;;;;;6220646;23;20576;-93
2022/02/07 11:43:33;;;;;;;4.87;3.50;;;7.50;99.90;;;;;;6223500;23;20184;-94
2022/02/07 11:46:06;;;;;;;5.60;3.30;;;7.50;99.90;;;;;;6201838;23;20194;-93
2022/02/07 11:48:43;;;;;;;4.37;3.33;;;7.50;99.90;;;;;;6204150;23;20180;-94
2022/02/07 11:51:16;;;;;;;6.43;3.50;;;7.60;99.90;;;;;;6239144;23;20182;-93
2022/02/07 11:53:51;;;;;;;6.07;3.77;;;7.40;99.90;;;;;;6236246;23;20168;-92
2022/02/07 11:56:34;;;;;;;4.17;3.10;;;7.40;99.90;;;;;;6200501;23;20195;-93
2022/02/07 11:59:14;;;;;;;7.03;3.77;;;7.30;99.90;;;;;;6220918;23;20206;-94
2022/02/07 12:02:04;;;;;;;7.57;4.20;;;7.30;99.90;;;;;;6222694;23;20183;-94
2022/02/07 12:04:42;;;;;;;5.57;3.93;;;7.20;99.90;;;;;;6226376;23;20180;-93
2022/02/07 12:07:32;;;;;;;5.27;3.40;;;7.10;99.90;;;;;;6225501;23;20178;-92
2022/02/07 12:10:37;;;;;;;5.17;3.57;;;7.00;99.90;;;;;;6240129;22;20206;-93
2022/02/07 12:13:28;;;;;;;4.70;3.40;;;6.90;99.90;;;;;;6240511;23;20176;-91
2022/02/07 12:16:00;;;;;;;7.20;3.63;;;6.80;99.90;;;;;;6240258;23;20183;-91
2022/02/07 12:18:32;;;;;;;5.53;4.10;;;6.70;99.90;;;;;;6236308;23;20200;-92
2022/02/07 12:21:25;;;;;;;5.50;3.80;;;6.70;99.90;;;;;;6240779;22;20202;-92
2022/02/07 12:23:59;;;;;;;5.13;3.60;;;6.60;99.90;;;;;;6241210;22;20156;-93
2022/02/07 12:26:32;;;;;;;5.57;4.13;;;6.60;99.90;;;;;;6241245;22;20175;-93
2022/02/07 12:29:09;;;;;;;7.33;3.43;;;6.60;99.90;;;;;;6241694;22;20161;-93
2022/02/07 12:31:40;;;;;;;4.90;3.27;;;6.60;99.90;;;;;;6241311;22;20176;-93
2022/02/07 12:34:15;;;;;;;5.57;3.77;;;6.60;99.90;;;;;;6239553;23;20168;-93
2022/02/07 12:36:52;;;;;;;4.13;3.27;;;6.60;99.90;;;;;;6228431;23;20338;-92
2022/02/07 12:39:22;;;;;;;5.07;3.50;;;6.70;99.90;;;;;;6227975;23;20280;-92
2022/02/07 12:41:59;;;;;;;5.37;3.70;;;6.80;99.90;;;;;;6227930;23;20180;-92
2022/02/07 12:44:31;;;;;;;5.80;3.87;;;6.80;99.90;;;;;;6227089;23;20168;-93
2022/02/07 12:47:02;;;;;;;8.53;3.70;;;6.90;99.90;;;;;;6226279;23;20226;-93
2022/02/07 12:49:38;;;;;;;4.90;3.00;;;6.90;99.90;;;;;;6225457;23;20168;-91
2022/02/07 12:52:11;;;;;;;4.20;2.67;;;6.90;99.90;;;;;;6226177;23;20169;-93
2022/02/07 12:54:44;;;;;;;9.80;4.43;;;6.90;99.90;;;;;;6227132;23;20237;-93
2022/02/07 12:57:16;;;;;;;5.90;4.03;;;6.90;99.90;;;;;;6196137;23;20220;-94
2022/02/07 12:59:54;;;;;;;4.47;3.17;;;6.90;99.90;;;;;;6227607;22;20498;-94
2022/02/07 13:02:32;;;;;;;4.53;3.10;;;6.90;99.90;;;;;;6225866;23;20168;-94
2022/02/07 13:05:04;;;;;;;3.97;3.03;;;6.80;99.90;;;;;;6198269;23;20200;-91
2022/02/07 13:07:41;;;;;;;4.80;3.33;;;6.80;99.90;;;;;;6225930;23;20176;-93
2022/02/07 13:10:14;;;;;;;7.07;3.63;;;6.90;99.90;;;;;;6226479;23;20512;-92
2022/02/07 13:15:35;;;;;;;4.60;3.00;;;6.90;99.90;;;;;;6235132;22;20173;-93
2022/02/07 13:18:13;;;;;;;4.37;2.70;;;6.90;99.90;;;;;;6216249;23;20254;-93
2022/02/07 13:20:45;;;;;;;5.23;3.10;;;6.90;99.90;;;;;;6225979;23;20203;-94
2022/02/07 13:23:20;;;;;;;4.07;2.60;;;6.90;99.90;;;;;;6226581;22;20168;-92
2022/02/07 13:25:54;;;;;;;4.97;2.90;;;6.90;99.90;;;;;;6224082;23;20171;-92
2022/02/07 13:28:33;;;;;;;4.10;2.50;;;6.90;99.90;;;;;;6222673;23;20182;-94
2022/02/07 13:31:05;;;;;;;3.43;2.47;;;6.90;99.90;;;;;;6223948;23;20192;-93
2022/02/07 13:33:48;;;;;;;2.70;2.20;;;7.00;99.90;;;;;;6197032;23;20187;-93
2022/02/07 13:36:41;;;;;;;6.07;2.33;;;7.10;99.90;;;;;;6225584;23;20168;-92
2022/02/07 13:39:15;;;;;;;5.40;2.47;;;7.20;99.90;;;;;;6225933;23;20235;-93
2022/02/07 13:42:02;;;;;;;3.77;2.20;;;7.20;99.90;;;;;;6199722;23;20171;-91
2022/02/07 13:44:34;;;;;;;4.87;2.27;;;7.30;99.90;;;;;;6198516;23;20567;-93
2022/02/07 13:47:07;;;;;;;6.33;2.30;;;7.40;99.90;;;;;;6198070;23;20263;-93
2022/02/07 13:49:54;;;;;;;5.50;3.70;;;7.60;99.90;;;;;;6198934;23;20169;-93
2022/02/07 13:52:32;;;;;;;4.77;2.53;;;7.70;99.90;;;;;;6225151;23;20249;-92
2022/02/07 13:55:24;;;;;;;5.23;2.37;;;7.70;99.90;;;;;;6225672;23;20182;-92
2022/02/07 13:58:02;;;;;;;2.77;1.80;;;7.70;99.90;;;;;;6223172;23;20172;-93
2022/02/07 14:00:36;;;;;;;4.07;1.97;;;7.70;99.90;;;;;;6223800;23;20173;-96
2022/02/07 14:03:13;;;;;;;2.97;1.90;;;7.80;99.90;;;;;;6224878;23;20180;-92
2022/02/07 14:05:47;;;;;;;2.47;1.77;;;7.90;99.90;;;;;;6225636;23;20527;-92
2022/02/07 14:08:29;;;;;;;2.83;1.80;;;7.90;99.90;;;;;;6226285;23;20196;-92
2022/02/07 14:11:05;;;;;;;3.80;1.93;;;8.00;99.90;;;;;;6224842;23;20191;-90
2022/02/07 14:13:38;;;;;;;3.33;1.77;;;8.00;99.90;;;;;;6223508;23;20176;-92
2022/02/07 14:16:10;;;;;;;4.93;2.17;;;7.90;99.90;;;;;;6221947;23;20176;-92
2022/02/07 14:18:45;;;;;;;2.93;1.73;;;8.00;99.90;;;;;;6222740;23;20204;-93
2022/02/07 14:21:18;;;;;;;2.50;1.50;;;8.00;99.90;;;;;;6203708;23;20170;-92
2022/02/07 14:23:51;;;;;;;5.70;1.70;;;8.00;99.90;;;;;;6198622;23;20185;-92
2022/02/07 14:29:33;;;;;;;3.73;1.70;;;8.00;99.90;;;;;;6226326;23;20235;-93
2022/02/07 14:32:22;;;;;;;3.23;1.60;;;8.10;99.90;;;;;;6222900;23;20180;-92
2022/02/07 14:34:53;;;;;;;2.30;1.40;;;8.10;99.90;;;;;;6223368;23;20199;-94
2022/02/07 14:37:24;;;;;;;5.70;2.33;;;8.10;99.90;;;;;;6221349;23;20169;-92
2022/02/07 14:39:55;;;;;;;2.27;1.47;;;8.10;99.90;;;;;;6223456;23;20196;-92
2022/02/07 14:42:28;;;;;;;2.80;1.70;;;8.10;99.90;;;;;;6227076;23;20176;-92
2022/02/07 14:45:09;;;;;;;2.73;1.40;;;8.10;99.90;;;;;;6223350;23;20172;-93
2022/02/07 14:47:51;;;;;;;4.07;1.70;;;8.10;99.90;;;;;;6222915;23;20169;-92
2022/02/07 14:50:25;;;;;;;4.73;1.80;;;8.10;99.90;;;;;;6224032;23;20234;-93
2022/02/07 14:52:58;;;;;;;3.13;1.60;;;8.10;99.90;;;;;;6223912;23;20180;-92
2022/02/07 14:55:29;;;;;;;4.77;1.70;;;8.10;99.90;;;;;;6240946;23;20180;-91
2022/02/07 14:58:02;;;;;;;2.17;1.63;;;8.00;99.90;;;;;;6239645;23;20181;-92
2022/02/07 15:00:33;;;;;;;3.20;1.83;;;8.00;99.90;;;;;;6237128;23;20197;-93
2022/02/07 15:03:05;;;;;;;4.47;1.80;;;8.00;99.90;;;;;;6224162;23;20172;-91
2022/02/07 15:05:37;;;;;;;2.90;1.60;;;8.00;99.90;;;;;;6226296;23;20168;-93
2022/02/07 15:08:08;;;;;;;5.07;1.60;;;8.00;99.90;;;;;;6199286;23;20180;-93
2022/02/07 15:10:39;;;;;;;2.10;1.60;;;7.90;99.90;;;;;;6224378;23;20190;-93
2022/02/07 15:13:17;;;;;;;2.73;1.50;;;8.00;99.90;;;;;;6223922;22;20211;-93
2022/02/07 15:15:48;;;;;;;6.90;2.20;;;7.90;99.90;;;;;;6232838;23;20181;-93
2022/02/07 15:18:21;;;;;;;4.63;1.60;;;7.90;99.90;;;;;;6229265;23;20243;-93
2022/02/07 15:20:54;;;;;;;3.77;1.93;;;7.90;99.90;;;;;;6235848;23;20222;-93
2022/02/07 15:23:25;;;;;;;3.87;1.77;;;7.90;99.90;;;;;;6237641;23;20172;-93
2022/02/07 15:26:01;;;;;;;2.23;1.53;;;7.90;99.90;;;;;;6211438;23;20180;-93
2022/02/07 15:28:33;;;;;;;2.93;1.63;;;7.80;99.90;;;;;;6230434;23;20209;-93
2022/02/07 15:31:04;;;;;;;2.40;1.40;;;7.80;99.90;;;;;;6230169;23;20804;-93